sensor_id;sensor_type;location;lat;lon;timestamp;temperature;humidity
7572;DHT22;3827;49.928;8.548;2022-12-07T00:05:09;3.70;99.90
7572;DHT22;3827;49.928;8.548;2022-12-07T00:07:36;3.90;99.90
7572;DHT22;3827;49.928;8.548;2022-12-07T00:17:26;3.00;99.90
7572;DHT22;3827;49.928;8.548;2022-12-07T00:19:52;3.70;99.90
7572;DHT22;3827;49.928;8.548;2022-12-07T00:24:46;3.80;99.90
7572;DHT22;3827;49.928;8.548;2022-12-07T00:32:08;3.30;99.90
7572;DHT22;3827;49.928;8.548;2022-12-07T00:37:02;3.50;99.90
7572;DHT22;3827;49.928;8.548;2022-12-07T00:41:56;3.60;99.90
7572;DHT22;3827;49.928;8.548;2022-12-07T00:54:15;3.30;99.90
7572;DHT22;3827;49.928;8.548;2022-12-07T01:01:39;3.10;99.90
7572;DHT22;3827;49.928;8.548;2022-12-07T01:04:07;3.70;99.90
7572;DHT22;3827;49.928;8.548;2022-12-07T01:06:34;3.00;99.90
7572;DHT22;3827;49.928;8.548;2022-12-07T01:09:02;3.50;99.90
7572;DHT22;3827;49.928;8.548;2022-12-07T01:13:58;3.60;99.90
7572;DHT22;3827;49.928;8.548;2022-12-07T01:21:24;2.90;99.90
7572;DHT22;3827;49.928;8.548;2022-12-07T01:23:52;3.30;99.90
7572;DHT22;3827;49.928;8.548;2022-12-07T01:28:48;3.30;99.90
7572;DHT22;3827;49.928;8.548;2022-12-07T01:31:16;3.20;99.90
7572;DHT22;3827;49.928;8.548;2022-12-07T01:36:14;3.70;99.90
7572;DHT22;3827;49.928;8.548;2022-12-07T01:38:44;3.30;99.90
7572;DHT22;3827;49.928;8.548;2022-12-07T01:44:11;3.50;99.90
7572;DHT22;3827;49.928;8.548;2022-12-07T01:46:39;2.90;99.90
7572;DHT22;3827;49.928;8.548;2022-12-07T01:49:09;3.20;99.90
7572;DHT22;3827;49.928;8.548;2022-12-07T01:54:04;2.90;99.90
7572;DHT22;3827;49.928;8.548;2022-12-07T01:56:32;3.30;99.90
7572;DHT22;3827;49.928;8.548;2022-12-07T01:59:00;3.00;99.90
7572;DHT22;3827;49.928;8.548;2022-12-07T02:01:28;3.50;99.90
7572;DHT22;3827;49.928;8.548;2022-12-07T02:16:21;3.00;99.90
7572;DHT22;3827;49.928;8.548;2022-12-07T02:34:31;3.30;99.90
7572;DHT22;3827;49.928;8.548;2022-12-07T02:37:03;3.90;99.90
7572;DHT22;3827;49.928;8.548;2022-12-07T02:39:39;3.90;99.90
7572;DHT22;3827;49.928;8.548;2022-12-07T02:44:41;3.10;99.90
7572;DHT22;3827;49.928;8.548;2022-12-07T02:47:12;3.50;99.90
7572;DHT22;3827;49.928;8.548;2022-12-07T02:52:08;3.90;99.90
7572;DHT22;3827;49.928;8.548;2022-12-07T02:57:09;3.30;99.90
7572;DHT22;3827;49.928;8.548;2022-12-07T02:59:46;3.20;99.90
7572;DHT22;3827;49.928;8.548;2022-12-07T03:02:22;3.60;99.90
7572;DHT22;3827;49.928;8.548;2022-12-07T03:04:58;3.70;99.90
7572;DHT22;3827;49.928;8.548;2022-12-07T03:10:10;3.00;99.90
7572;DHT22;3827;49.928;8.548;2022-12-07T03:15:15;3.80;99.90
7572;DHT22;3827;49.928;8.548;2022-12-07T03:22:43;3.80;99.90
7572;DHT22;3827;49.928;8.548;2022-12-07T03:30:12;3.60;99.90
7572;DHT22;3827;49.928;8.548;2022-12-07T03:35:15;3.30;99.90
7572;DHT22;3827;49.928;8.548;2022-12-07T03:40:16;3.40;99.90
7572;DHT22;3827;49.928;8.548;2022-12-07T03:42:47;4.00;99.90
7572;DHT22;3827;49.928;8.548;2022-12-07T03:52:46;3.20;99.90
7572;DHT22;3827;49.928;8.548;2022-12-07T03:57:45;3.10;99.90
7572;DHT22;3827;49.928;8.548;2022-12-07T04:00:15;3.90;99.90
7572;DHT22;3827;49.928;8.548;2022-12-07T04:05:09;3.20;99.90
7572;DHT22;3827;49.928;8.548;2022-12-07T04:12:31;3.60;99.90
7572;DHT22;3827;49.928;8.548;2022-12-07T04:14:58;3.50;99.90
7572;DHT22;3827;49.928;8.548;2022-12-07T04:17:26;3.60;99.90
7572;DHT22;3827;49.928;8.548;2022-12-07T04:22:20;3.30;99.90
7572;DHT22;3827;49.928;8.548;2022-12-07T04:24:47;3.10;99.90
7572;DHT22;3827;49.928;8.548;2022-12-07T04:27:14;4.00;99.90
7572;DHT22;3827;49.928;8.548;2022-12-07T04:32:08;4.00;99.90
7572;DHT22;3827;49.928;8.548;2022-12-07T04:46:55;3.70;99.90
7572;DHT22;3827;49.928;8.548;2022-12-07T04:51:51;3.20;99.90
7572;DHT22;3827;49.928;8.548;2022-12-07T04:56:45;3.30;99.90
7572;DHT22;3827;49.928;8.548;2022-12-07T04:59:13;3.70;99.90
7572;DHT22;3827;49.928;8.548;2022-12-07T05:01:40;3.30;99.90
7572;DHT22;3827;49.928;8.548;2022-12-07T05:16:34;3.80;99.90
7572;DHT22;3827;49.928;8.548;2022-12-07T05:28:52;3.80;99.90
7572;DHT22;3827;49.928;8.548;2022-12-07T05:36:13;3.80;99.90
7572;DHT22;3827;49.928;8.548;2022-12-07T05:43:58;4.00;99.90
7572;DHT22;3827;49.928;8.548;2022-12-07T05:48:52;3.30;99.90
7572;DHT22;3827;49.928;8.548;2022-12-07T05:53:46;3.80;99.90
7572;DHT22;3827;49.928;8.548;2022-12-07T06:11:11;3.40;99.90
7572;DHT22;3827;49.928;8.548;2022-12-07T06:18:50;4.20;99.90
7572;DHT22;3827;49.928;8.548;2022-12-07T06:23:44;4.10;99.90
7572;DHT22;3827;49.928;8.548;2022-12-07T06:26:13;3.90;99.90
7572;DHT22;3827;49.928;8.548;2022-12-07T06:36:03;4.10;99.90
7572;DHT22;3827;49.928;8.548;2022-12-07T06:40:57;4.10;99.90
7572;DHT22;3827;49.928;8.548;2022-12-07T06:45:51;4.10;99.90
7572;DHT22;3827;49.928;8.548;2022-12-07T06:50:46;3.70;99.90
7572;DHT22;3827;49.928;8.548;2022-12-07T06:53:13;4.10;99.90
7572;DHT22;3827;49.928;8.548;2022-12-07T06:55:41;4.20;99.90
7572;DHT22;3827;49.928;8.548;2022-12-07T07:05:29;4.10;99.90
7572;DHT22;3827;49.928;8.548;2022-12-07T07:27:36;4.30;99.90
7572;DHT22;3827;49.928;8.548;2022-12-07T07:37:25;4.10;99.90
7572;DHT22;3827;49.928;8.548;2022-12-07T07:42:20;4.10;99.90
7572;DHT22;3827;49.928;8.548;2022-12-07T07:44:47;4.40;99.90
7572;DHT22;3827;49.928;8.548;2022-12-07T07:49:41;4.40;99.90
7572;DHT22;3827;49.928;8.548;2022-12-07T07:59:30;4.60;99.90
7572;DHT22;3827;49.928;8.548;2022-12-07T08:01:57;4.60;99.90
7572;DHT22;3827;49.928;8.548;2022-12-07T08:06:51;4.10;99.90
7572;DHT22;3827;49.928;8.548;2022-12-07T08:11:45;4.20;99.90
7572;DHT22;3827;49.928;8.548;2022-12-07T08:19:07;4.40;99.90
7572;DHT22;3827;49.928;8.548;2022-12-07T08:24:01;4.70;99.90
7572;DHT22;3827;49.928;8.548;2022-12-07T08:26:28;4.70;99.90
7572;DHT22;3827;49.928;8.548;2022-12-07T08:31:22;4.40;99.90
7572;DHT22;3827;49.928;8.548;2022-12-07T08:33:50;4.70;99.90
7572;DHT22;3827;49.928;8.548;2022-12-07T08:38:45;4.70;99.90
7572;DHT22;3827;49.928;8.548;2022-12-07T08:41:12;4.60;99.90
7572;DHT22;3827;49.928;8.548;2022-12-07T08:46:09;4.30;99.90
7572;DHT22;3827;49.928;8.548;2022-12-07T08:48:39;4.50;99.90
7572;DHT22;3827;49.928;8.548;2022-12-07T08:51:08;4.40;99.90
7572;DHT22;3827;49.928;8.548;2022-12-07T08:56:05;4.60;99.90
7572;DHT22;3827;49.928;8.548;2022-12-07T09:05:54;4.90;99.90
7572;DHT22;3827;49.928;8.548;2022-12-07T09:10:50;5.00;99.90
7572;DHT22;3827;49.928;8.548;2022-12-07T09:13:17;5.00;99.90
7572;DHT22;3827;49.928;8.548;2022-12-07T09:42:51;5.30;99.90
7572;DHT22;3827;49.928;8.548;2022-12-07T09:52:43;5.20;99.90
7572;DHT22;3827;49.928;8.548;2022-12-07T09:57:40;5.30;99.90
7572;DHT22;3827;49.928;8.548;2022-12-07T10:00:12;5.10;99.90
7572;DHT22;3827;49.928;8.548;2022-12-07T10:05:13;5.40;99.90
7572;DHT22;3827;49.928;8.548;2022-12-07T10:10:14;5.40;99.90
7572;DHT22;3827;49.928;8.548;2022-12-07T10:13:01;5.70;99.90
7572;DHT22;3827;49.928;8.548;2022-12-07T10:15:48;5.60;99.90
7572;DHT22;3827;49.928;8.548;2022-12-07T10:31:14;5.90;99.90
7572;DHT22;3827;49.928;8.548;2022-12-07T10:38:46;6.20;99.90
7572;DHT22;3827;49.928;8.548;2022-12-07T10:52:03;5.80;99.90
7572;DHT22;3827;49.928;8.548;2022-12-07T11:02:43;5.80;99.90
7572;DHT22;3827;49.928;8.548;2022-12-07T11:05:19;5.40;99.90
7572;DHT22;3827;49.928;8.548;2022-12-07T11:10:24;5.40;99.90
7572;DHT22;3827;49.928;8.548;2022-12-07T11:13:05;5.40;99.90
7572;DHT22;3827;49.928;8.548;2022-12-07T11:15:57;5.50;99.90
7572;DHT22;3827;49.928;8.548;2022-12-07T11:21:06;5.70;99.90
7572;DHT22;3827;49.928;8.548;2022-12-07T11:31:22;7.70;99.90
7572;DHT22;3827;49.928;8.548;2022-12-07T11:33:59;7.80;99.90
7572;DHT22;3827;49.928;8.548;2022-12-07T11:41:31;7.70;99.90
7572;DHT22;3827;49.928;8.548;2022-12-07T11:44:04;7.50;99.90
7572;DHT22;3827;49.928;8.548;2022-12-07T11:51:41;6.70;99.90
7572;DHT22;3827;49.928;8.548;2022-12-07T11:54:14;7.00;99.90
7572;DHT22;3827;49.928;8.548;2022-12-07T11:56:42;6.60;99.90
7572;DHT22;3827;49.928;8.548;2022-12-07T11:59:13;6.50;99.90
7572;DHT22;3827;49.928;8.548;2022-12-07T12:06:51;6.20;99.90
7572;DHT22;3827;49.928;8.548;2022-12-07T12:09:21;6.50;99.90
7572;DHT22;3827;49.928;8.548;2022-12-07T12:14:38;6.70;99.90
7572;DHT22;3827;49.928;8.548;2022-12-07T12:22:36;6.80;99.90
7572;DHT22;3827;49.928;8.548;2022-12-07T12:25:06;6.70;99.90
7572;DHT22;3827;49.928;8.548;2022-12-07T12:27:35;6.20;99.90
7572;DHT22;3827;49.928;8.548;2022-12-07T12:32:37;6.80;99.90
7572;DHT22;3827;49.928;8.548;2022-12-07T12:38:26;6.00;99.90
7572;DHT22;3827;49.928;8.548;2022-12-07T12:40:54;6.60;99.90
7572;DHT22;3827;49.928;8.548;2022-12-07T12:43:39;6.30;99.90
7572;DHT22;3827;49.928;8.548;2022-12-07T12:46:38;6.40;99.90
7572;DHT22;3827;49.928;8.548;2022-12-07T13:03:36;6.60;99.90
7572;DHT22;3827;49.928;8.548;2022-12-07T13:08:47;6.50;99.90
7572;DHT22;3827;49.928;8.548;2022-12-07T13:11:24;6.80;99.90
7572;DHT22;3827;49.928;8.548;2022-12-07T13:17:01;6.70;99.90
7572;DHT22;3827;49.928;8.548;2022-12-07T13:22:43;7.70;99.90
7572;DHT22;3827;49.928;8.548;2022-12-07T13:27:50;7.50;99.90
7572;DHT22;3827;49.928;8.548;2022-12-07T13:32:53;8.00;99.90
7572;DHT22;3827;49.928;8.548;2022-12-07T13:35:32;7.70;99.90
7572;DHT22;3827;49.928;8.548;2022-12-07T13:40:27;7.40;99.90
7572;DHT22;3827;49.928;8.548;2022-12-07T13:50:51;7.50;99.90
7572;DHT22;3827;49.928;8.548;2022-12-07T14:00:41;6.60;99.90
7572;DHT22;3827;49.928;8.548;2022-12-07T14:03:27;6.60;99.90
7572;DHT22;3827;49.928;8.548;2022-12-07T14:06:18;6.60;99.90
7572;DHT22;3827;49.928;8.548;2022-12-07T14:08:46;6.00;99.90
7572;DHT22;3827;49.928;8.548;2022-12-07T14:33:39;5.90;99.90
7572;DHT22;3827;49.928;8.548;2022-12-07T14:36:09;5.70;99.90
7572;DHT22;3827;49.928;8.548;2022-12-07T14:41:04;6.00;99.90
7572;DHT22;3827;49.928;8.548;2022-12-07T14:43:48;6.30;99.90
7572;DHT22;3827;49.928;8.548;2022-12-07T14:46:15;6.30;99.90
7572;DHT22;3827;49.928;8.548;2022-12-07T14:51:11;6.10;99.90
7572;DHT22;3827;49.928;8.548;2022-12-07T14:53:41;6.10;99.90
7572;DHT22;3827;49.928;8.548;2022-12-07T14:56:09;6.00;99.90
7572;DHT22;3827;49.928;8.548;2022-12-07T15:01:03;5.90;99.90
7572;DHT22;3827;49.928;8.548;2022-12-07T15:05:57;5.60;99.90
7572;DHT22;3827;49.928;8.548;2022-12-07T15:08:25;5.20;99.90
7572;DHT22;3827;49.928;8.548;2022-12-07T15:13:19;4.70;99.90
7572;DHT22;3827;49.928;8.548;2022-12-07T15:16:04;4.50;99.90
7572;DHT22;3827;49.928;8.548;2022-12-07T15:23:27;4.10;99.90
7572;DHT22;3827;49.928;8.548;2022-12-07T15:35:44;4.40;99.90
7572;DHT22;3827;49.928;8.548;2022-12-07T15:38:11;4.40;99.90
7572;DHT22;3827;49.928;8.548;2022-12-07T15:40:39;4.50;99.90
7572;DHT22;3827;49.928;8.548;2022-12-07T15:45:55;4.00;99.90
7572;DHT22;3827;49.928;8.548;2022-12-07T15:50:48;4.10;99.90
7572;DHT22;3827;49.928;8.548;2022-12-07T15:55:43;4.20;99.90
7572;DHT22;3827;49.928;8.548;2022-12-07T15:58:10;4.50;99.90
7572;DHT22;3827;49.928;8.548;2022-12-07T16:03:04;4.50;99.90
7572;DHT22;3827;49.928;8.548;2022-12-07T16:07:58;4.10;99.90
7572;DHT22;3827;49.928;8.548;2022-12-07T16:15:21;3.90;99.90
7572;DHT22;3827;49.928;8.548;2022-12-07T16:25:11;4.00;99.90
7572;DHT22;3827;49.928;8.548;2022-12-07T16:30:08;4.00;99.90
7572;DHT22;3827;49.928;8.548;2022-12-07T16:32:35;3.80;99.90
7572;DHT22;3827;49.928;8.548;2022-12-07T16:35:02;3.60;99.90
7572;DHT22;3827;49.928;8.548;2022-12-07T16:37:28;4.00;99.90
7572;DHT22;3827;49.928;8.548;2022-12-07T16:44:49;3.50;99.90
7572;DHT22;3827;49.928;8.548;2022-12-07T16:47:17;3.90;99.90
7572;DHT22;3827;49.928;8.548;2022-12-07T16:57:06;4.20;99.90
7572;DHT22;3827;49.928;8.548;2022-12-07T17:09:23;3.70;99.90
7572;DHT22;3827;49.928;8.548;2022-12-07T17:11:50;4.20;99.90
7572;DHT22;3827;49.928;8.548;2022-12-07T17:17:02;3.80;99.90
7572;DHT22;3827;49.928;8.548;2022-12-07T17:21:58;3.90;99.90
7572;DHT22;3827;49.928;8.548;2022-12-07T17:24:25;3.80;99.90
7572;DHT22;3827;49.928;8.548;2022-12-07T17:29:18;4.20;99.90
7572;DHT22;3827;49.928;8.548;2022-12-07T17:36:42;3.90;99.90
7572;DHT22;3827;49.928;8.548;2022-12-07T17:39:11;4.30;99.90
7572;DHT22;3827;49.928;8.548;2022-12-07T17:41:38;4.20;99.90
7572;DHT22;3827;49.928;8.548;2022-12-07T17:44:23;4.10;99.90
7572;DHT22;3827;49.928;8.548;2022-12-07T17:51:48;4.00;99.90
7572;DHT22;3827;49.928;8.548;2022-12-07T17:59:27;3.90;99.90
7572;DHT22;3827;49.928;8.548;2022-12-07T18:04:21;3.70;99.90
7572;DHT22;3827;49.928;8.548;2022-12-07T18:06:49;3.70;99.90
7572;DHT22;3827;49.928;8.548;2022-12-07T18:09:17;3.90;99.90
7572;DHT22;3827;49.928;8.548;2022-12-07T18:11:45;3.90;99.90
7572;DHT22;3827;49.928;8.548;2022-12-07T18:14:12;3.70;99.90
7572;DHT22;3827;49.928;8.548;2022-12-07T18:26:32;4.00;99.90
7572;DHT22;3827;49.928;8.548;2022-12-07T18:29:00;3.30;99.90
7572;DHT22;3827;49.928;8.548;2022-12-07T18:36:22;4.10;99.90
7572;DHT22;3827;49.928;8.548;2022-12-07T18:38:50;3.30;99.90
7572;DHT22;3827;49.928;8.548;2022-12-07T18:48:40;4.00;99.90
7572;DHT22;3827;49.928;8.548;2022-12-07T18:51:09;4.00;99.90
7572;DHT22;3827;49.928;8.548;2022-12-07T18:53:37;3.50;99.90
7572;DHT22;3827;49.928;8.548;2022-12-07T18:56:05;3.70;99.90
7572;DHT22;3827;49.928;8.548;2022-12-07T19:01:01;3.90;99.90
7572;DHT22;3827;49.928;8.548;2022-12-07T19:03:28;3.90;99.90
7572;DHT22;3827;49.928;8.548;2022-12-07T19:05:56;3.70;99.90
7572;DHT22;3827;49.928;8.548;2022-12-07T19:10:50;3.80;99.90
7572;DHT22;3827;49.928;8.548;2022-12-07T19:18:13;3.10;99.90
7572;DHT22;3827;49.928;8.548;2022-12-07T19:23:07;3.60;99.90
7572;DHT22;3827;49.928;8.548;2022-12-07T19:28:01;3.80;99.90
7572;DHT22;3827;49.928;8.548;2022-12-07T19:32:57;3.50;99.90
7572;DHT22;3827;49.928;8.548;2022-12-07T19:35:24;3.50;99.90
7572;DHT22;3827;49.928;8.548;2022-12-07T19:37:51;3.40;99.90
7572;DHT22;3827;49.928;8.548;2022-12-07T19:40:18;3.10;99.90
7572;DHT22;3827;49.928;8.548;2022-12-07T19:45:12;3.40;99.90
7572;DHT22;3827;49.928;8.548;2022-12-07T19:50:08;3.40;99.90
7572;DHT22;3827;49.928;8.548;2022-12-07T19:52:35;3.90;99.90
7572;DHT22;3827;49.928;8.548;2022-12-07T19:55:02;3.40;99.90
7572;DHT22;3827;49.928;8.548;2022-12-07T20:02:23;3.50;99.90
7572;DHT22;3827;49.928;8.548;2022-12-07T20:04:50;4.00;99.90
7572;DHT22;3827;49.928;8.548;2022-12-07T20:14:58;3.60;99.90
7572;DHT22;3827;49.928;8.548;2022-12-07T20:22:20;3.90;99.90
7572;DHT22;3827;49.928;8.548;2022-12-07T20:24:47;3.20;99.90
7572;DHT22;3827;49.928;8.548;2022-12-07T20:29:42;3.20;99.90
7572;DHT22;3827;49.928;8.548;2022-12-07T20:32:11;3.70;99.90
7572;DHT22;3827;49.928;8.548;2022-12-07T20:34:38;3.20;99.90
7572;DHT22;3827;49.928;8.548;2022-12-07T20:37:05;3.30;99.90
7572;DHT22;3827;49.928;8.548;2022-12-07T20:42:01;3.30;99.90
7572;DHT22;3827;49.928;8.548;2022-12-07T20:44:45;3.50;99.90
7572;DHT22;3827;49.928;8.548;2022-12-07T20:49:39;3.30;99.90
7572;DHT22;3827;49.928;8.548;2022-12-07T20:54:35;3.30;99.90
7572;DHT22;3827;49.928;8.548;2022-12-07T20:57:01;3.30;99.90
7572;DHT22;3827;49.928;8.548;2022-12-07T21:04:25;4.00;99.90
7572;DHT22;3827;49.928;8.548;2022-12-07T21:09:19;3.90;99.90
7572;DHT22;3827;49.928;8.548;2022-12-07T21:16:47;3.50;99.90
7572;DHT22;3827;49.928;8.548;2022-12-07T21:19:14;3.80;99.90
7572;DHT22;3827;49.928;8.548;2022-12-07T21:31:34;3.20;99.90
7572;DHT22;3827;49.928;8.548;2022-12-07T21:36:28;3.60;99.90
7572;DHT22;3827;49.928;8.548;2022-12-07T21:43:51;3.40;99.90
7572;DHT22;3827;49.928;8.548;2022-12-07T21:48:49;4.00;99.90
7572;DHT22;3827;49.928;8.548;2022-12-07T21:51:16;3.30;99.90
7572;DHT22;3827;49.928;8.548;2022-12-07T21:56:14;3.40;99.90
7572;DHT22;3827;49.928;8.548;2022-12-07T21:58:41;3.30;99.90
7572;DHT22;3827;49.928;8.548;2022-12-07T22:06:11;4.00;99.90
7572;DHT22;3827;49.928;8.548;2022-12-07T22:13:33;3.40;99.90
7572;DHT22;3827;49.928;8.548;2022-12-07T22:21:09;3.80;99.90
7572;DHT22;3827;49.928;8.548;2022-12-07T22:31:01;3.90;99.90
7572;DHT22;3827;49.928;8.548;2022-12-07T22:40:51;3.20;99.90
7572;DHT22;3827;49.928;8.548;2022-12-07T22:45:53;4.00;99.90
7572;DHT22;3827;49.928;8.548;2022-12-07T22:50:48;3.90;99.90
7572;DHT22;3827;49.928;8.548;2022-12-07T22:53:17;3.40;99.90
7572;DHT22;3827;49.928;8.548;2022-12-07T22:55:44;3.80;99.90
7572;DHT22;3827;49.928;8.548;2022-12-07T23:00:38;4.00;99.90
7572;DHT22;3827;49.928;8.548;2022-12-07T23:05:33;3.80;99.90
7572;DHT22;3827;49.928;8.548;2022-12-07T23:07:59;3.90;99.90
7572;DHT22;3827;49.928;8.548;2022-12-07T23:10:28;3.20;99.90
7572;DHT22;3827;49.928;8.548;2022-12-07T23:18:08;3.50;99.90
7572;DHT22;3827;49.928;8.548;2022-12-07T23:20:35;4.20;99.90
7572;DHT22;3827;49.928;8.548;2022-12-07T23:30:25;3.50;99.90
7572;DHT22;3827;49.928;8.548;2022-12-07T23:35:19;4.00;99.90
7572;DHT22;3827;49.928;8.548;2022-12-07T23:42:41;3.80;99.90
7572;DHT22;3827;49.928;8.548;2022-12-07T23:45:09;4.00;99.90
7572;DHT22;3827;49.928;8.548;2022-12-07T23:50:04;3.50;99.90
7572;DHT22;3827;49.928;8.548;2022-12-07T23:57:25;3.70;99.90
7572;DHT22;3827;49.928;8.548;2022-12-07T23:59:53;4.00;99.90
